sensor_id;sensor_type;location;lat;lon;timestamp;temperature;humidity
4904;DHT22;2467;48.142;11.616;2022-10-17T00:00:17;15.60;99.90
4904;DHT22;2467;48.142;11.616;2022-10-17T00:00:50;15.60;99.90
4904;DHT22;2467;48.142;11.616;2022-10-17T00:01:22;15.60;99.90
4904;DHT22;2467;48.142;11.616;2022-10-17T00:01:55;15.60;99.90
4904;DHT22;2467;48.142;11.616;2022-10-17T00:02:27;15.60;99.90
4904;DHT22;2467;48.142;11.616;2022-10-17T00:02:59;15.60;99.90
4904;DHT22;2467;48.142;11.616;2022-10-17T00:03:31;15.60;99.90
4904;DHT22;2467;48.142;11.616;2022-10-17T00:04:03;15.60;99.90
4904;DHT22;2467;48.142;11.616;2022-10-17T00:04:37;15.50;99.90
4904;DHT22;2467;48.142;11.616;2022-10-17T00:05:09;15.50;99.90
4904;DHT22;2467;48.142;11.616;2022-10-17T00:05:45;15.50;99.90
4904;DHT22;2467;48.142;11.616;2022-10-17T00:06:17;15.50;99.90
4904;DHT22;2467;48.142;11.616;2022-10-17T00:06:49;15.50;99.90
4904;DHT22;2467;48.142;11.616;2022-10-17T00:07:21;15.50;99.90
4904;DHT22;2467;48.142;11.616;2022-10-17T00:07:54;15.50;99.90
4904;DHT22;2467;48.142;11.616;2022-10-17T00:08:26;15.50;99.90
4904;DHT22;2467;48.142;11.616;2022-10-17T00:08:58;15.50;99.90
4904;DHT22;2467;48.142;11.616;2022-10-17T00:09:30;15.40;99.90
4904;DHT22;2467;48.142;11.616;2022-10-17T00:10:04;15.50;99.90
4904;DHT22;2467;48.142;11.616;2022-10-17T00:10:36;15.50;99.90
4904;DHT22;2467;48.142;11.616;2022-10-17T00:11:13;15.50;99.90
4904;DHT22;2467;48.142;11.616;2022-10-17T00:11:47;15.50;99.90
4904;DHT22;2467;48.142;11.616;2022-10-17T00:12:19;15.50;99.90
4904;DHT22;2467;48.142;11.616;2022-10-17T00:12:51;15.50;99.90
4904;DHT22;2467;48.142;11.616;2022-10-17T00:13:23;15.50;99.90
4904;DHT22;2467;48.142;11.616;2022-10-17T00:13:56;15.50;99.90
4904;DHT22;2467;48.142;11.616;2022-10-17T00:14:28;15.50;99.90
4904;DHT22;2467;48.142;11.616;2022-10-17T00:15:02;15.40;99.90
4904;DHT22;2467;48.142;11.616;2022-10-17T00:15:36;15.40;99.90
4904;DHT22;2467;48.142;11.616;2022-10-17T00:16:08;15.40;99.90
4904;DHT22;2467;48.142;11.616;2022-10-17T00:16:40;15.40;99.90
4904;DHT22;2467;48.142;11.616;2022-10-17T00:17:13;15.50;99.90
4904;DHT22;2467;48.142;11.616;2022-10-17T00:17:46;15.40;99.90
4904;DHT22;2467;48.142;11.616;2022-10-17T00:18:17;15.40;99.90
4904;DHT22;2467;48.142;11.616;2022-10-17T00:18:50;15.40;99.90
4904;DHT22;2467;48.142;11.616;2022-10-17T00:19:22;15.40;99.90
4904;DHT22;2467;48.142;11.616;2022-10-17T00:19:57;15.30;99.90
4904;DHT22;2467;48.142;11.616;2022-10-17T00:20:30;15.30;99.90
4904;DHT22;2467;48.142;11.616;2022-10-17T00:21:03;15.30;99.90
4904;DHT22;2467;48.142;11.616;2022-10-17T00:21:35;15.30;99.90
4904;DHT22;2467;48.142;11.616;2022-10-17T00:22:08;15.30;99.90
4904;DHT22;2467;48.142;11.616;2022-10-17T00:22:40;15.30;99.90
4904;DHT22;2467;48.142;11.616;2022-10-17T00:23:11;15.30;99.90
4904;DHT22;2467;48.142;11.616;2022-10-17T00:23:45;15.30;99.90
4904;DHT22;2467;48.142;11.616;2022-10-17T00:24:17;15.30;99.90
4904;DHT22;2467;48.142;11.616;2022-10-17T00:24:49;15.30;99.90
4904;DHT22;2467;48.142;11.616;2022-10-17T00:25:22;15.30;99.90
4904;DHT22;2467;48.142;11.616;2022-10-17T00:25:58;15.30;99.90
4904;DHT22;2467;48.142;11.616;2022-10-17T00:26:31;15.30;99.90
4904;DHT22;2467;48.142;11.616;2022-10-17T00:27:03;15.30;99.90
4904;DHT22;2467;48.142;11.616;2022-10-17T00:27:36;15.20;99.90
4904;DHT22;2467;48.142;11.616;2022-10-17T00:28:09;15.30;99.90
4904;DHT22;2467;48.142;11.616;2022-10-17T00:28:45;15.20;99.90
4904;DHT22;2467;48.142;11.616;2022-10-17T00:29:16;15.30;99.90
4904;DHT22;2467;48.142;11.616;2022-10-17T00:29:49;15.30;99.90
4904;DHT22;2467;48.142;11.616;2022-10-17T00:30:21;15.30;99.90
4904;DHT22;2467;48.142;11.616;2022-10-17T00:30:57;15.30;99.90
4904;DHT22;2467;48.142;11.616;2022-10-17T00:31:29;15.30;99.90
4904;DHT22;2467;48.142;11.616;2022-10-17T00:32:02;15.30;99.90
4904;DHT22;2467;48.142;11.616;2022-10-17T00:32:33;15.30;99.90
4904;DHT22;2467;48.142;11.616;2022-10-17T00:33:05;15.30;99.90
4904;DHT22;2467;48.142;11.616;2022-10-17T00:33:38;15.20;99.90
4904;DHT22;2467;48.142;11.616;2022-10-17T00:34:10;15.20;99.90
4904;DHT22;2467;48.142;11.616;2022-10-17T00:34:42;15.30;99.90
4904;DHT22;2467;48.142;11.616;2022-10-17T00:35:15;15.30;99.90
4904;DHT22;2467;48.142;11.616;2022-10-17T00:35:48;15.30;99.90
4904;DHT22;2467;48.142;11.616;2022-10-17T00:36:21;15.30;99.90
4904;DHT22;2467;48.142;11.616;2022-10-17T00:36:53;15.30;99.90
4904;DHT22;2467;48.142;11.616;2022-10-17T00:37:26;15.20;99.90
4904;DHT22;2467;48.142;11.616;2022-10-17T00:37:58;15.20;99.90
4904;DHT22;2467;48.142;11.616;2022-10-17T00:38:29;15.20;99.90
4904;DHT22;2467;48.142;11.616;2022-10-17T00:39:02;15.20;99.90
4904;DHT22;2467;48.142;11.616;2022-10-17T00:39:34;15.20;99.90
4904;DHT22;2467;48.142;11.616;2022-10-17T00:40:08;15.20;99.90
4904;DHT22;2467;48.142;11.616;2022-10-17T00:40:41;15.20;99.90
4904;DHT22;2467;48.142;11.616;2022-10-17T00:41:14;15.20;99.90
4904;DHT22;2467;48.142;11.616;2022-10-17T00:41:46;15.20;99.90
4904;DHT22;2467;48.142;11.616;2022-10-17T00:42:19;15.20;99.90
4904;DHT22;2467;48.142;11.616;2022-10-17T00:42:51;15.20;99.90
4904;DHT22;2467;48.142;11.616;2022-10-17T00:43:23;15.20;99.90
4904;DHT22;2467;48.142;11.616;2022-10-17T00:43:59;15.20;99.90
4904;DHT22;2467;48.142;11.616;2022-10-17T00:44:56;15.20;99.90
4904;DHT22;2467;48.142;11.616;2022-10-17T00:45:29;15.20;99.90
4904;DHT22;2467;48.142;11.616;2022-10-17T00:46:02;15.10;99.90
4904;DHT22;2467;48.142;11.616;2022-10-17T00:46:35;15.10;99.90
4904;DHT22;2467;48.142;11.616;2022-10-17T00:47:09;15.10;99.90
4904;DHT22;2467;48.142;11.616;2022-10-17T00:47:45;15.10;99.90
4904;DHT22;2467;48.142;11.616;2022-10-17T00:48:20;15.10;99.90
4904;DHT22;2467;48.142;11.616;2022-10-17T00:48:55;15.10;99.90
4904;DHT22;2467;48.142;11.616;2022-10-17T00:49:30;15.10;99.90
4904;DHT22;2467;48.142;11.616;2022-10-17T00:50:04;15.10;99.90
4904;DHT22;2467;48.142;11.616;2022-10-17T00:50:43;15.10;99.90
4904;DHT22;2467;48.142;11.616;2022-10-17T00:51:19;15.10;99.90
4904;DHT22;2467;48.142;11.616;2022-10-17T00:51:54;15.20;99.90
4904;DHT22;2467;48.142;11.616;2022-10-17T00:52:28;15.00;99.90
4904;DHT22;2467;48.142;11.616;2022-10-17T00:53:03;15.00;99.90
4904;DHT22;2467;48.142;11.616;2022-10-17T00:53:38;15.00;99.90
4904;DHT22;2467;48.142;11.616;2022-10-17T00:54:11;15.00;99.90
4904;DHT22;2467;48.142;11.616;2022-10-17T00:54:46;15.00;99.90
4904;DHT22;2467;48.142;11.616;2022-10-17T00:55:22;14.90;99.90
4904;DHT22;2467;48.142;11.616;2022-10-17T00:55:55;14.90;99.90
4904;DHT22;2467;48.142;11.616;2022-10-17T00:56:27;14.90;99.90
4904;DHT22;2467;48.142;11.616;2022-10-17T00:57:00;14.90;99.90
4904;DHT22;2467;48.142;11.616;2022-10-17T00:57:33;14.90;99.90
4904;DHT22;2467;48.142;11.616;2022-10-17T00:58:05;15.00;99.90
4904;DHT22;2467;48.142;11.616;2022-10-17T00:58:37;15.00;99.90
4904;DHT22;2467;48.142;11.616;2022-10-17T00:59:11;15.00;99.90
4904;DHT22;2467;48.142;11.616;2022-10-17T00:59:47;15.00;99.90
4904;DHT22;2467;48.142;11.616;2022-10-17T01:00:21;14.90;99.90
4904;DHT22;2467;48.142;11.616;2022-10-17T01:00:53;14.90;99.90
4904;DHT22;2467;48.142;11.616;2022-10-17T01:01:25;14.90;99.90
4904;DHT22;2467;48.142;11.616;2022-10-17T01:02:00;14.90;99.90
4904;DHT22;2467;48.142;11.616;2022-10-17T01:02:33;14.90;99.90
4904;DHT22;2467;48.142;11.616;2022-10-17T01:03:05;14.90;99.90
4904;DHT22;2467;48.142;11.616;2022-10-17T01:03:37;14.90;99.90
4904;DHT22;2467;48.142;11.616;2022-10-17T01:04:10;14.90;99.90
4904;DHT22;2467;48.142;11.616;2022-10-17T01:04:44;14.90;99.90
4904;DHT22;2467;48.142;11.616;2022-10-17T01:05:17;14.90;99.90
4904;DHT22;2467;48.142;11.616;2022-10-17T01:05:52;14.90;99.90
4904;DHT22;2467;48.142;11.616;2022-10-17T01:06:23;14.90;99.90
4904;DHT22;2467;48.142;11.616;2022-10-17T01:06:56;14.90;99.90
4904;DHT22;2467;48.142;11.616;2022-10-17T01:07:28;14.90;99.90
4904;DHT22;2467;48.142;11.616;2022-10-17T01:08:08;14.90;99.90
4904;DHT22;2467;48.142;11.616;2022-10-17T01:08:40;14.80;99.90
4904;DHT22;2467;48.142;11.616;2022-10-17T01:09:13;14.90;99.90
4904;DHT22;2467;48.142;11.616;2022-10-17T01:09:45;14.80;99.90
4904;DHT22;2467;48.142;11.616;2022-10-17T01:10:18;14.80;99.90
4904;DHT22;2467;48.142;11.616;2022-10-17T01:10:58;14.80;99.90
4904;DHT22;2467;48.142;11.616;2022-10-17T01:11:36;14.80;99.90
4904;DHT22;2467;48.142;11.616;2022-10-17T01:12:16;14.80;99.90
4904;DHT22;2467;48.142;11.616;2022-10-17T01:13:03;14.80;99.90
4904;DHT22;2467;48.142;11.616;2022-10-17T01:13:41;14.80;99.90
4904;DHT22;2467;48.142;11.616;2022-10-17T01:14:23;14.80;99.90
4904;DHT22;2467;48.142;11.616;2022-10-17T01:15:08;14.80;99.90
4904;DHT22;2467;48.142;11.616;2022-10-17T01:15:51;14.70;99.90
4904;DHT22;2467;48.142;11.616;2022-10-17T01:16:35;14.70;99.90
4904;DHT22;2467;48.142;11.616;2022-10-17T01:17:14;14.70;99.90
4904;DHT22;2467;48.142;11.616;2022-10-17T01:17:57;14.70;99.90
4904;DHT22;2467;48.142;11.616;2022-10-17T01:18:45;14.70;99.90
4904;DHT22;2467;48.142;11.616;2022-10-17T01:19:34;14.70;99.90
4904;DHT22;2467;48.142;11.616;2022-10-17T01:20:40;14.70;99.90
4904;DHT22;2467;48.142;11.616;2022-10-17T01:21:29;14.70;99.90
4904;DHT22;2467;48.142;11.616;2022-10-17T01:22:07;14.60;99.90
4904;DHT22;2467;48.142;11.616;2022-10-17T01:22:45;14.60;99.90
4904;DHT22;2467;48.142;11.616;2022-10-17T01:23:29;14.60;99.90
4904;DHT22;2467;48.142;11.616;2022-10-17T01:24:30;14.60;99.90
4904;DHT22;2467;48.142;11.616;2022-10-17T01:25:20;14.60;99.90
4904;DHT22;2467;48.142;11.616;2022-10-17T01:25:59;14.50;99.90
4904;DHT22;2467;48.142;11.616;2022-10-17T01:26:51;14.50;99.90
4904;DHT22;2467;48.142;11.616;2022-10-17T01:27:50;14.50;99.90
4904;DHT22;2467;48.142;11.616;2022-10-17T01:28:55;14.50;99.90
4904;DHT22;2467;48.142;11.616;2022-10-17T01:29:56;14.40;99.90
4904;DHT22;2467;48.142;11.616;2022-10-17T01:31:06;14.40;99.90
4904;DHT22;2467;48.142;11.616;2022-10-17T01:31:44;14.40;99.90
4904;DHT22;2467;48.142;11.616;2022-10-17T01:32:19;14.40;99.90
4904;DHT22;2467;48.142;11.616;2022-10-17T01:32:56;14.40;99.90
4904;DHT22;2467;48.142;11.616;2022-10-17T01:33:43;14.40;99.90
4904;DHT22;2467;48.142;11.616;2022-10-17T01:34:19;14.40;99.90
4904;DHT22;2467;48.142;11.616;2022-10-17T01:34:57;14.30;99.90
4904;DHT22;2467;48.142;11.616;2022-10-17T01:35:33;14.30;99.90
4904;DHT22;2467;48.142;11.616;2022-10-17T01:36:11;14.30;99.90
4904;DHT22;2467;48.142;11.616;2022-10-17T01:36:49;14.30;99.90
4904;DHT22;2467;48.142;11.616;2022-10-17T01:37:29;14.30;99.90
4904;DHT22;2467;48.142;11.616;2022-10-17T01:38:08;14.30;99.90
4904;DHT22;2467;48.142;11.616;2022-10-17T01:38:46;14.40;99.90
4904;DHT22;2467;48.142;11.616;2022-10-17T01:39:27;14.40;99.90
4904;DHT22;2467;48.142;11.616;2022-10-17T01:40:06;14.40;99.90
4904;DHT22;2467;48.142;11.616;2022-10-17T01:40:45;14.40;99.90
4904;DHT22;2467;48.142;11.616;2022-10-17T01:41:26;14.40;99.90
4904;DHT22;2467;48.142;11.616;2022-10-17T01:42:02;14.40;99.90
4904;DHT22;2467;48.142;11.616;2022-10-17T01:42:47;14.40;99.90
4904;DHT22;2467;48.142;11.616;2022-10-17T01:43:25;14.40;99.90
4904;DHT22;2467;48.142;11.616;2022-10-17T01:44:01;14.40;99.90
4904;DHT22;2467;48.142;11.616;2022-10-17T01:44:40;14.40;99.90
4904;DHT22;2467;48.142;11.616;2022-10-17T01:45:16;14.40;99.90
4904;DHT22;2467;48.142;11.616;2022-10-17T01:45:52;14.50;99.90
4904;DHT22;2467;48.142;11.616;2022-10-17T01:46:31;14.40;99.90
4904;DHT22;2467;48.142;11.616;2022-10-17T01:47:08;14.50;99.90
4904;DHT22;2467;48.142;11.616;2022-10-17T01:47:42;14.40;99.90
4904;DHT22;2467;48.142;11.616;2022-10-17T01:48:17;14.40;99.90
4904;DHT22;2467;48.142;11.616;2022-10-17T01:48:51;14.40;99.90
4904;DHT22;2467;48.142;11.616;2022-10-17T01:49:27;14.40;99.90
4904;DHT22;2467;48.142;11.616;2022-10-17T01:50:04;14.40;99.90
4904;DHT22;2467;48.142;11.616;2022-10-17T01:50:42;14.50;99.90
4904;DHT22;2467;48.142;11.616;2022-10-17T01:51:19;14.50;99.90
4904;DHT22;2467;48.142;11.616;2022-10-17T01:51:55;14.50;99.90
4904;DHT22;2467;48.142;11.616;2022-10-17T01:52:34;14.50;99.90
4904;DHT22;2467;48.142;11.616;2022-10-17T01:53:11;14.50;99.90
4904;DHT22;2467;48.142;11.616;2022-10-17T01:53:50;14.50;99.90
4904;DHT22;2467;48.142;11.616;2022-10-17T01:54:27;14.50;99.90
4904;DHT22;2467;48.142;11.616;2022-10-17T01:55:05;14.50;99.90
4904;DHT22;2467;48.142;11.616;2022-10-17T01:55:41;14.50;99.90
4904;DHT22;2467;48.142;11.616;2022-10-17T01:56:17;14.50;99.90
4904;DHT22;2467;48.142;11.616;2022-10-17T01:56:54;14.50;99.90
4904;DHT22;2467;48.142;11.616;2022-10-17T01:57:30;14.50;99.90
4904;DHT22;2467;48.142;11.616;2022-10-17T01:58:07;14.50;99.90
4904;DHT22;2467;48.142;11.616;2022-10-17T01:58:44;14.50;99.90
4904;DHT22;2467;48.142;11.616;2022-10-17T01:59:20;14.50;99.90
4904;DHT22;2467;48.142;11.616;2022-10-17T01:59:54;14.40;99.90
4904;DHT22;2467;48.142;11.616;2022-10-17T02:00:27;14.40;99.90
4904;DHT22;2467;48.142;11.616;2022-10-17T02:01:03;14.40;99.90
4904;DHT22;2467;48.142;11.616;2022-10-17T02:01:40;14.40;99.90
4904;DHT22;2467;48.142;11.616;2022-10-17T02:02:14;14.40;99.90
4904;DHT22;2467;48.142;11.616;2022-10-17T02:02:49;14.40;99.90
4904;DHT22;2467;48.142;11.616;2022-10-17T02:03:24;14.40;99.90
4904;DHT22;2467;48.142;11.616;2022-10-17T02:03:58;14.40;99.90
4904;DHT22;2467;48.142;11.616;2022-10-17T02:04:31;14.40;99.90
4904;DHT22;2467;48.142;11.616;2022-10-17T02:05:04;14.40;99.90
4904;DHT22;2467;48.142;11.616;2022-10-17T02:05:39;14.40;99.90
4904;DHT22;2467;48.142;11.616;2022-10-17T02:06:11;14.40;99.90
4904;DHT22;2467;48.142;11.616;2022-10-17T02:06:44;14.40;99.90
4904;DHT22;2467;48.142;11.616;2022-10-17T02:07:16;14.40;99.90
4904;DHT22;2467;48.142;11.616;2022-10-17T02:07:48;14.50;99.90
4904;DHT22;2467;48.142;11.616;2022-10-17T02:08:25;14.70;99.90
4904;DHT22;2467;48.142;11.616;2022-10-17T02:08:57;14.50;99.90
4904;DHT22;2467;48.142;11.616;2022-10-17T02:09:29;14.50;99.90
4904;DHT22;2467;48.142;11.616;2022-10-17T02:10:04;14.50;99.90
4904;DHT22;2467;48.142;11.616;2022-10-17T02:10:45;14.50;99.90
4904;DHT22;2467;48.142;11.616;2022-10-17T02:11:19;14.50;99.90
4904;DHT22;2467;48.142;11.616;2022-10-17T02:12:15;14.50;99.90
4904;DHT22;2467;48.142;11.616;2022-10-17T02:12:54;14.50;99.90
4904;DHT22;2467;48.142;11.616;2022-10-17T02:13:38;14.40;99.90
4904;DHT22;2467;48.142;11.616;2022-10-17T02:14:21;14.40;99.90
4904;DHT22;2467;48.142;11.616;2022-10-17T02:15:09;14.40;99.90
4904;DHT22;2467;48.142;11.616;2022-10-17T02:15:58;14.30;99.90
4904;DHT22;2467;48.142;11.616;2022-10-17T02:16:36;14.30;99.90
4904;DHT22;2467;48.142;11.616;2022-10-17T02:17:17;14.30;99.90
4904;DHT22;2467;48.142;11.616;2022-10-17T02:17:56;14.30;99.90
4904;DHT22;2467;48.142;11.616;2022-10-17T02:19:45;14.30;99.90
4904;DHT22;2467;48.142;11.616;2022-10-17T02:20:23;14.30;99.90
4904;DHT22;2467;48.142;11.616;2022-10-17T02:21:01;14.30;99.90
4904;DHT22;2467;48.142;11.616;2022-10-17T02:21:43;14.30;99.90
4904;DHT22;2467;48.142;11.616;2022-10-17T02:22:22;14.30;99.90
4904;DHT22;2467;48.142;11.616;2022-10-17T02:22:59;14.30;99.90
4904;DHT22;2467;48.142;11.616;2022-10-17T02:23:40;14.30;99.90
4904;DHT22;2467;48.142;11.616;2022-10-17T02:24:21;14.30;99.90
4904;DHT22;2467;48.142;11.616;2022-10-17T02:25:02;14.30;99.90
4904;DHT22;2467;48.142;11.616;2022-10-17T02:25:38;14.40;99.90
4904;DHT22;2467;48.142;11.616;2022-10-17T02:26:18;14.40;99.90
4904;DHT22;2467;48.142;11.616;2022-10-17T02:26:55;14.40;99.90
4904;DHT22;2467;48.142;11.616;2022-10-17T02:27:34;14.40;99.90
4904;DHT22;2467;48.142;11.616;2022-10-17T02:28:18;14.40;99.90
4904;DHT22;2467;48.142;11.616;2022-10-17T02:29:00;14.40;99.90
4904;DHT22;2467;48.142;11.616;2022-10-17T02:29:37;14.40;99.90
4904;DHT22;2467;48.142;11.616;2022-10-17T02:30:18;14.40;99.90
4904;DHT22;2467;48.142;11.616;2022-10-17T02:30:58;14.30;99.90
4904;DHT22;2467;48.142;11.616;2022-10-17T02:31:35;14.30;99.90
4904;DHT22;2467;48.142;11.616;2022-10-17T02:32:13;14.30;99.90
4904;DHT22;2467;48.142;11.616;2022-10-17T02:32:52;14.30;99.90
4904;DHT22;2467;48.142;11.616;2022-10-17T02:33:29;14.40;99.90
4904;DHT22;2467;48.142;11.616;2022-10-17T02:34:05;14.20;99.90
4904;DHT22;2467;48.142;11.616;2022-10-17T02:34:41;14.30;99.90
4904;DHT22;2467;48.142;11.616;2022-10-17T02:35:15;14.20;99.90
4904;DHT22;2467;48.142;11.616;2022-10-17T02:35:51;14.20;99.90
4904;DHT22;2467;48.142;11.616;2022-10-17T02:36:26;14.20;99.90
4904;DHT22;2467;48.142;11.616;2022-10-17T02:37:02;14.20;99.90
4904;DHT22;2467;48.142;11.616;2022-10-17T02:37:36;14.30;99.90
4904;DHT22;2467;48.142;11.616;2022-10-17T02:38:10;14.20;99.90
4904;DHT22;2467;48.142;11.616;2022-10-17T02:38:44;14.20;99.90
4904;DHT22;2467;48.142;11.616;2022-10-17T02:39:18;14.20;99.90
4904;DHT22;2467;48.142;11.616;2022-10-17T02:39:51;14.20;99.90
4904;DHT22;2467;48.142;11.616;2022-10-17T02:40:27;14.20;99.90
4904;DHT22;2467;48.142;11.616;2022-10-17T02:41:00;14.20;99.90
4904;DHT22;2467;48.142;11.616;2022-10-17T02:41:33;14.30;99.90
4904;DHT22;2467;48.142;11.616;2022-10-17T02:42:10;14.30;99.90
4904;DHT22;2467;48.142;11.616;2022-10-17T02:42:44;14.20;99.90
4904;DHT22;2467;48.142;11.616;2022-10-17T02:43:18;14.20;99.90
4904;DHT22;2467;48.142;11.616;2022-10-17T02:43:52;14.20;99.90
4904;DHT22;2467;48.142;11.616;2022-10-17T02:44:27;14.30;99.90
4904;DHT22;2467;48.142;11.616;2022-10-17T02:45:01;14.30;99.90
4904;DHT22;2467;48.142;11.616;2022-10-17T02:45:36;14.30;99.90
4904;DHT22;2467;48.142;11.616;2022-10-17T02:46:08;14.30;99.90
4904;DHT22;2467;48.142;11.616;2022-10-17T02:46:40;14.30;99.90
4904;DHT22;2467;48.142;11.616;2022-10-17T02:47:20;14.30;99.90
4904;DHT22;2467;48.142;11.616;2022-10-17T02:47:56;14.30;99.90
4904;DHT22;2467;48.142;11.616;2022-10-17T02:48:34;14.30;99.90
4904;DHT22;2467;48.142;11.616;2022-10-17T02:49:15;14.20;99.90
4904;DHT22;2467;48.142;11.616;2022-10-17T02:49:50;14.20;99.90
4904;DHT22;2467;48.142;11.616;2022-10-17T02:50:28;14.20;99.90
4904;DHT22;2467;48.142;11.616;2022-10-17T02:51:08;14.20;99.90
4904;DHT22;2467;48.142;11.616;2022-10-17T02:51:46;14.20;99.90
4904;DHT22;2467;48.142;11.616;2022-10-17T02:52:23;14.20;99.90
4904;DHT22;2467;48.142;11.616;2022-10-17T02:53:03;14.20;99.90
4904;DHT22;2467;48.142;11.616;2022-10-17T02:53:39;14.20;99.90
4904;DHT22;2467;48.142;11.616;2022-10-17T02:54:18;14.20;99.90
4904;DHT22;2467;48.142;11.616;2022-10-17T02:54:55;14.20;99.90
4904;DHT22;2467;48.142;11.616;2022-10-17T02:55:30;14.20;99.90
4904;DHT22;2467;48.142;11.616;2022-10-17T02:56:16;14.20;99.90
4904;DHT22;2467;48.142;11.616;2022-10-17T02:56:52;14.20;99.90
4904;DHT22;2467;48.142;11.616;2022-10-17T02:57:29;14.20;99.90
4904;DHT22;2467;48.142;11.616;2022-10-17T02:58:05;14.20;99.90
4904;DHT22;2467;48.142;11.616;2022-10-17T02:58:39;14.20;99.90
4904;DHT22;2467;48.142;11.616;2022-10-17T02:59:14;14.20;99.90
4904;DHT22;2467;48.142;11.616;2022-10-17T02:59:49;14.20;99.90
4904;DHT22;2467;48.142;11.616;2022-10-17T03:00:22;14.20;99.90
4904;DHT22;2467;48.142;11.616;2022-10-17T03:00:56;14.20;99.90
4904;DHT22;2467;48.142;11.616;2022-10-17T03:01:29;14.20;99.90
4904;DHT22;2467;48.142;11.616;2022-10-17T03:02:02;14.20;99.90
4904;DHT22;2467;48.142;11.616;2022-10-17T03:02:41;14.20;99.90
4904;DHT22;2467;48.142;11.616;2022-10-17T03:03:22;14.20;99.90
4904;DHT22;2467;48.142;11.616;2022-10-17T03:04:04;14.30;99.90
4904;DHT22;2467;48.142;11.616;2022-10-17T03:04:37;14.30;99.90
4904;DHT22;2467;48.142;11.616;2022-10-17T03:05:12;14.30;99.90
4904;DHT22;2467;48.142;11.616;2022-10-17T03:05:44;14.30;99.90
4904;DHT22;2467;48.142;11.616;2022-10-17T03:06:17;14.30;99.90
4904;DHT22;2467;48.142;11.616;2022-10-17T03:06:49;14.30;99.90
4904;DHT22;2467;48.142;11.616;2022-10-17T03:07:21;14.30;99.90
4904;DHT22;2467;48.142;11.616;2022-10-17T03:07:55;14.30;99.90
4904;DHT22;2467;48.142;11.616;2022-10-17T03:08:27;14.30;99.90
4904;DHT22;2467;48.142;11.616;2022-10-17T03:08:59;14.30;99.90
4904;DHT22;2467;48.142;11.616;2022-10-17T03:09:32;14.30;99.90
4904;DHT22;2467;48.142;11.616;2022-10-17T03:10:04;14.30;99.90
4904;DHT22;2467;48.142;11.616;2022-10-17T03:10:36;14.30;99.90
4904;DHT22;2467;48.142;11.616;2022-10-17T03:11:09;14.30;99.90
4904;DHT22;2467;48.142;11.616;2022-10-17T03:11:41;14.30;99.90
4904;DHT22;2467;48.142;11.616;2022-10-17T03:12:13;14.30;99.90
4904;DHT22;2467;48.142;11.616;2022-10-17T03:12:45;14.30;99.90
4904;DHT22;2467;48.142;11.616;2022-10-17T03:13:17;14.30;99.90
4904;DHT22;2467;48.142;11.616;2022-10-17T03:13:49;14.30;99.90
4904;DHT22;2467;48.142;11.616;2022-10-17T03:14:22;14.30;99.90
4904;DHT22;2467;48.142;11.616;2022-10-17T03:14:54;14.30;99.90
4904;DHT22;2467;48.142;11.616;2022-10-17T03:15:25;14.30;99.90
4904;DHT22;2467;48.142;11.616;2022-10-17T03:15:58;14.30;99.90
4904;DHT22;2467;48.142;11.616;2022-10-17T03:16:30;14.40;99.90
4904;DHT22;2467;48.142;11.616;2022-10-17T03:17:02;14.40;99.90
4904;DHT22;2467;48.142;11.616;2022-10-17T03:17:36;14.30;99.90
4904;DHT22;2467;48.142;11.616;2022-10-17T03:18:09;14.30;99.90
4904;DHT22;2467;48.142;11.616;2022-10-17T03:18:41;14.30;99.90
4904;DHT22;2467;48.142;11.616;2022-10-17T03:19:18;14.30;99.90
4904;DHT22;2467;48.142;11.616;2022-10-17T03:19:50;14.30;99.90
4904;DHT22;2467;48.142;11.616;2022-10-17T03:20:22;14.30;99.90
4904;DHT22;2467;48.142;11.616;2022-10-17T03:20:54;14.30;99.90
4904;DHT22;2467;48.142;11.616;2022-10-17T03:21:26;14.30;99.90
4904;DHT22;2467;48.142;11.616;2022-10-17T03:21:58;14.30;99.90
4904;DHT22;2467;48.142;11.616;2022-10-17T03:22:31;14.30;99.90
4904;DHT22;2467;48.142;11.616;2022-10-17T03:23:03;14.30;99.90
4904;DHT22;2467;48.142;11.616;2022-10-17T03:23:35;14.30;99.90
4904;DHT22;2467;48.142;11.616;2022-10-17T03:24:07;14.30;99.90
4904;DHT22;2467;48.142;11.616;2022-10-17T03:24:39;14.30;99.90
4904;DHT22;2467;48.142;11.616;2022-10-17T03:25:11;14.30;99.90
4904;DHT22;2467;48.142;11.616;2022-10-17T03:25:44;14.30;99.90
4904;DHT22;2467;48.142;11.616;2022-10-17T03:26:16;14.30;99.90
4904;DHT22;2467;48.142;11.616;2022-10-17T03:26:47;14.30;99.90
4904;DHT22;2467;48.142;11.616;2022-10-17T03:27:20;14.30;99.90
4904;DHT22;2467;48.142;11.616;2022-10-17T03:27:52;14.30;99.90
4904;DHT22;2467;48.142;11.616;2022-10-17T03:28:24;14.30;99.90
4904;DHT22;2467;48.142;11.616;2022-10-17T03:28:57;14.30;99.90
4904;DHT22;2467;48.142;11.616;2022-10-17T03:29:29;14.30;99.90
4904;DHT22;2467;48.142;11.616;2022-10-17T03:30:01;14.30;99.90
4904;DHT22;2467;48.142;11.616;2022-10-17T03:30:33;14.30;99.90
4904;DHT22;2467;48.142;11.616;2022-10-17T03:31:06;14.30;99.90
4904;DHT22;2467;48.142;11.616;2022-10-17T03:31:39;14.20;99.90
4904;DHT22;2467;48.142;11.616;2022-10-17T03:32:11;14.20;99.90
4904;DHT22;2467;48.142;11.616;2022-10-17T03:32:43;14.20;99.90
4904;DHT22;2467;48.142;11.616;2022-10-17T03:33:16;14.20;99.90
4904;DHT22;2467;48.142;11.616;2022-10-17T03:33:49;14.20;99.90
4904;DHT22;2467;48.142;11.616;2022-10-17T03:34:21;14.20;99.90
4904;DHT22;2467;48.142;11.616;2022-10-17T03:34:53;14.20;99.90
4904;DHT22;2467;48.142;11.616;2022-10-17T03:35:26;14.20;99.90
4904;DHT22;2467;48.142;11.616;2022-10-17T03:35:58;14.20;99.90
4904;DHT22;2467;48.142;11.616;2022-10-17T03:36:29;14.20;99.90
4904;DHT22;2467;48.142;11.616;2022-10-17T03:37:02;14.20;99.90
4904;DHT22;2467;48.142;11.616;2022-10-17T03:37:34;14.20;99.90
4904;DHT22;2467;48.142;11.616;2022-10-17T03:38:06;14.20;99.90
4904;DHT22;2467;48.142;11.616;2022-10-17T03:38:39;14.20;99.90
4904;DHT22;2467;48.142;11.616;2022-10-17T03:39:11;14.10;99.90
4904;DHT22;2467;48.142;11.616;2022-10-17T03:39:43;14.10;99.90
4904;DHT22;2467;48.142;11.616;2022-10-17T03:40:14;14.10;99.90
4904;DHT22;2467;48.142;11.616;2022-10-17T03:40:53;14.10;99.90
4904;DHT22;2467;48.142;11.616;2022-10-17T03:41:25;14.10;99.90
4904;DHT22;2467;48.142;11.616;2022-10-17T03:41:58;14.10;99.90
4904;DHT22;2467;48.142;11.616;2022-10-17T03:42:30;14.10;99.90
4904;DHT22;2467;48.142;11.616;2022-10-17T03:43:02;14.10;99.90
4904;DHT22;2467;48.142;11.616;2022-10-17T03:43:35;14.10;99.90
4904;DHT22;2467;48.142;11.616;2022-10-17T03:44:07;14.10;99.90
4904;DHT22;2467;48.142;11.616;2022-10-17T03:44:39;13.90;99.90
4904;DHT22;2467;48.142;11.616;2022-10-17T03:45:12;14.10;99.90
4904;DHT22;2467;48.142;11.616;2022-10-17T03:45:44;14.10;99.90
4904;DHT22;2467;48.142;11.616;2022-10-17T03:46:16;14.00;99.90
4904;DHT22;2467;48.142;11.616;2022-10-17T03:46:53;14.00;99.90
4904;DHT22;2467;48.142;11.616;2022-10-17T03:47:26;14.00;99.90
4904;DHT22;2467;48.142;11.616;2022-10-17T03:47:59;14.00;99.90
4904;DHT22;2467;48.142;11.616;2022-10-17T03:48:33;14.00;99.90
4904;DHT22;2467;48.142;11.616;2022-10-17T03:49:05;13.90;99.90
4904;DHT22;2467;48.142;11.616;2022-10-17T03:49:37;13.90;99.90